Question-and-Answer Resource for the Building Energy Modeling Community
Get started with the Help page
Ask Your Question

Urado's profile - karma

Urado's karma change log

10 0 Plant sizing: how to choose the design loop exit temperature and temperature difference ? ( 2018-06-04 07:26:05 -0600 )

10 0 Energy consumption of each thermal zone ( 2018-03-19 13:45:48 -0600 )

10 0 AHU control with Night Cycle ( 2018-02-03 20:09:59 -0600 )

10 0 Thermostat Tolerance in AvailabilityManager:NightCycle ( 2018-02-03 20:08:57 -0600 )

15 0 What objects do you recommend me to use in order to model a mechanical ventilation system with heat recovery, air to water heat pump for heating and cooling? ( 2018-01-15 08:34:32 -0600 )

10 0 Creating new construction materials ( 2017-11-23 10:44:19 -0600 )

10 0 Sizing problem with Coil:WaterHeating:AirToWaterHeatPump ( 2017-09-27 00:56:49 -0600 )

10 0 Radiant flow system with heating only ( 2017-05-08 18:36:06 -0600 )

10 0 How to output humidity ratio of zone in EnergyPlus? ( 2016-12-01 13:25:26 -0600 )

10 0 How to output the solar radiation data received by exterior walls in E+? ( 2016-11-29 12:58:37 -0600 )

10 0 How to output the solar radiation data received by exterior walls in E+? ( 2016-11-27 15:37:55 -0600 )

10 0 Energyplus error message ( 2016-11-16 03:18:34 -0600 )

15 0 Energyplus error message ( 2016-11-15 20:28:49 -0600 )

10 0 Energyplus error message ( 2016-11-15 10:42:45 -0600 )

10 0 Energyplus error message ( 2016-11-15 08:53:26 -0600 )

10 0 What objects do you recommend me to use in order to model a mechanical ventilation system with heat recovery, air to water heat pump for heating and cooling? ( 2016-11-15 08:53:11 -0600 )

10 0 Energyplus error message ( 2016-11-15 08:44:29 -0600 )

10 0 Energyplus error message ( 2016-11-15 08:10:54 -0600 )

15 0 Heating pump air to water ( 2016-07-26 05:51:31 -0600 )

0 -15 Heating pump air to water ( 2016-07-26 05:51:27 -0600 )

15 0 Heating pump air to water ( 2016-07-26 05:51:25 -0600 )

0 2 AHU control with Night Cycle ( 2016-07-25 17:17:59 -0600 )

0 -10 AHU control with Night Cycle ( 2016-07-25 17:17:58 -0600 )

10 0 AHU control with Night Cycle ( 2016-07-25 17:17:56 -0600 )

10 0 How to apply "air_wall_zone_mixing" measure for a subsurface object ( 2016-07-18 09:32:14 -0600 )

10 0 Is it legal to split one room into several zones in EnergyPlus? ( 2016-06-02 17:09:48 -0600 )

10 0 Sizing problem with Coil:WaterHeating:AirToWaterHeatPump ( 2016-06-02 15:44:48 -0600 )

10 0 Sizing problem with Coil:WaterHeating:AirToWaterHeatPump ( 2016-06-02 11:38:55 -0600 )

10 0 Is it legal to split one room into several zones in EnergyPlus? ( 2016-06-02 11:38:39 -0600 )

0 -15 Heating pump air to water ( 2016-05-27 10:55:33 -0600 )

15 0 Heating pump air to water ( 2016-05-27 08:57:09 -0600 )

10 0 Thermostat Tolerance in AvailabilityManager:NightCycle ( 2016-05-26 08:52:41 -0600 )

10 0 Thermostat Tolerance in AvailabilityManager:NightCycle ( 2016-05-26 08:49:33 -0600 )

0 -15 Heating pump air to water ( 2016-05-25 11:55:02 -0600 )

15 0 Heating pump air to water ( 2016-05-25 11:54:58 -0600 )

0 -15 Heating pump air to water ( 2016-05-25 11:54:55 -0600 )

10 0 Heating pump air to water ( 2016-05-25 11:25:36 -0600 )

10 0 Heating pump air to water ( 2016-05-25 11:25:19 -0600 )

15 0 Heating pump air to water ( 2016-05-25 11:25:14 -0600 )

10 0 Heating pump air to water ( 2016-05-25 08:04:04 -0600 )

10 0 Heating pump air to water ( 2016-05-25 07:08:11 -0600 )

0 -1 MBtu Units in OpenStudio Results, is this MEGA btu or Thousands of Btu? ( 2016-05-12 05:53:20 -0600 )

10 0 Plant sizing: how to choose the design loop exit temperature and temperature difference ? ( 2016-05-03 10:11:28 -0600 )

2 0 Plant sizing: how to choose the design loop exit temperature and temperature difference ? ( 2016-05-03 08:22:16 -0600 )

10 0 Plant sizing: how to choose the design loop exit temperature and temperature difference ? ( 2016-05-03 07:45:53 -0600 )

10 0 Plant sizing: how to choose the design loop exit temperature and temperature difference ? ( 2016-05-03 07:40:40 -0600 )

10 0 Seperate zones in one thermal zone ( 2016-04-26 11:46:51 -0600 )

10 0 Radiant flow system with heating only ( 2016-04-26 09:49:25 -0600 )

10 0 Radiant flow system with heating only ( 2016-04-26 06:44:28 -0600 )

0 -10 Radiant flow system with heating only ( 2016-04-26 06:34:19 -0600 )

10 0 Radiant flow system with heating only ( 2016-04-26 06:34:05 -0600 )

10 0 Warehouse simulation considerations ( 2016-04-25 18:00:16 -0600 )

10 0 Warehouse simulation considerations ( 2016-04-25 11:18:55 -0600 )

10 0 How to apply "air_wall_zone_mixing" measure for a subsurface object ( 2016-04-25 11:15:06 -0600 )

10 0 Radiant flow system with heating only ( 2016-04-25 11:14:11 -0600 )

10 0 How to apply "air_wall_zone_mixing" measure for a subsurface object ( 2016-04-25 10:26:36 -0600 )

0 -1 How do you model a heating only radiant system? ( 2016-04-25 10:22:44 -0600 )

10 0 AHU control with Night Cycle ( 2016-04-25 10:11:20 -0600 )

15 0 How to apply "air_wall_zone_mixing" measure for a subsurface object ( 2016-04-25 09:58:41 -0600 )

10 0 How to apply "air_wall_zone_mixing" measure for a subsurface object ( 2016-04-25 09:54:15 -0600 )

0 -10 How to apply "air_wall_zone_mixing" measure for a subsurface object ( 2016-04-25 09:54:14 -0600 )

0 -15 How to apply "air_wall_zone_mixing" measure for a subsurface object ( 2016-04-25 09:54:10 -0600 )

10 0 How to apply "air_wall_zone_mixing" measure for a subsurface object ( 2016-04-25 09:51:03 -0600 )

15 0 How to apply "air_wall_zone_mixing" measure for a subsurface object ( 2016-04-25 09:51:02 -0600 )

10 0 How to apply "air_wall_zone_mixing" measure for a subsurface object ( 2016-04-25 08:45:13 -0600 )

10 0 AHU control with Night Cycle ( 2016-04-25 07:15:52 -0600 )

2 0 AHU control with Night Cycle ( 2016-04-25 05:37:09 -0600 )

10 0 AHU control with Night Cycle ( 2016-04-25 05:33:56 -0600 )

10 0 Uninstalling Openstudio ( 2016-04-21 16:18:46 -0600 )

10 0 How to create a void in Openstudio model ( 2016-04-21 13:57:12 -0600 )

10 0 No heat from water to air loop in OpenStudio ( 2016-04-21 10:48:23 -0600 )

10 0 No heat from water to air loop in OpenStudio ( 2016-04-21 10:05:12 -0600 )

10 0 No heat from water to air loop in OpenStudio ( 2016-04-21 08:43:09 -0600 )

10 0 How to create a void in Openstudio model ( 2016-04-21 08:42:56 -0600 )

10 0 Uninstalling Openstudio ( 2016-04-21 08:42:45 -0600 )

10 0 How to create a void in Openstudio model ( 2016-04-21 08:14:12 -0600 )

10 0 No heat from water to air loop in OpenStudio ( 2016-04-21 07:21:29 -0600 )

10 0 No heat from water to air loop in OpenStudio ( 2016-04-20 16:41:05 -0600 )

10 0 No heat from water to air loop in OpenStudio ( 2016-04-20 10:28:25 -0600 )

10 0 No heat from water to air loop in OpenStudio ( 2016-04-20 09:20:56 -0600 )

10 0 No heat from water to air loop in OpenStudio ( 2016-04-20 08:06:57 -0600 )

10 0 Energy consumption of each thermal zone ( 2016-04-13 08:56:21 -0600 )

10 0 Energy consumption of each thermal zone ( 2016-04-13 08:12:03 -0600 )

10 0 How to use a WaterHeater:HeatPump in OS ? ( 2016-04-12 07:23:14 -0600 )

10 0 Need some help with WaterHeater:HeatPump ( 2016-04-02 06:44:49 -0600 )

2 0 Need some help with WaterHeater:HeatPump ( 2016-03-31 04:13:10 -0600 )

10 0 Creating new construction materials ( 2016-02-24 10:23:14 -0600 )

10 0 Creating new construction materials ( 2016-01-18 07:50:31 -0600 )

10 0 Creating new construction materials ( 2016-01-18 07:42:49 -0600 )